createdAt,value
2023-04-15T00:00:16.812Z,60.50
2023-04-15T00:00:51.959Z,60.47
2023-04-15T00:01:24.997Z,60.50
2023-04-15T00:01:59.009Z,59.33
2023-04-15T00:02:31.290Z,60.00
2023-04-15T00:03:05.299Z,60.05
2023-04-15T00:03:37.718Z,60.42
2023-04-15T00:04:10.223Z,60.10
2023-04-15T00:04:43.263Z,59.90
2023-04-15T00:05:15.669Z,60.90
2023-04-15T00:05:48.609Z,59.78
2023-04-15T00:06:20.643Z,60.25
2023-04-15T00:06:53.203Z,60.10
2023-04-15T00:07:26.229Z,59.03
2023-04-15T00:07:58.890Z,60.00
2023-04-15T00:08:31.076Z,59.67
2023-04-15T00:09:03.888Z,59.70
2023-04-15T00:09:36.901Z,59.60
2023-04-15T00:10:09.333Z,59.90
2023-04-15T00:10:44.151Z,59.80
2023-04-15T00:11:17.197Z,59.05
2023-04-15T00:11:50.723Z,59.97
2023-04-15T00:12:22.875Z,59.50
2023-04-15T00:12:55.806Z,59.35
2023-04-15T00:13:27.728Z,59.55
2023-04-15T00:14:00.308Z,59.97
2023-04-15T00:14:32.250Z,59.78
2023-04-15T00:15:06.850Z,59.30
2023-04-15T00:15:39.148Z,59.60
2023-04-15T00:16:11.582Z,59.97
2023-04-15T00:16:44.726Z,59.80
2023-04-15T00:17:17.101Z,58.80
2023-04-15T00:17:51.360Z,58.97
2023-04-15T00:18:26.080Z,58.60
2023-04-15T00:18:58.174Z,59.47
2023-04-15T00:19:30.503Z,60.05
2023-04-15T00:20:04.011Z,59.67
2023-04-15T00:20:35.982Z,58.58
2023-04-15T00:21:08.061Z,60.40
2023-04-15T00:21:41.318Z,58.95
2023-04-15T00:22:13.704Z,59.25
2023-04-15T00:22:46.393Z,59.83
2023-04-15T00:23:19.399Z,59.65
2023-04-15T00:23:53.684Z,58.88
2023-04-15T00:24:25.622Z,58.83
2023-04-15T00:24:58.511Z,59.55
2023-04-15T00:25:30.469Z,59.65
2023-04-15T00:26:02.664Z,59.30
2023-04-15T00:26:35.746Z,60.25
2023-04-15T00:27:09.105Z,58.95
2023-04-15T00:27:41.081Z,58.78
2023-04-15T00:28:14.193Z,58.85
2023-04-15T00:28:46.195Z,59.70
2023-04-15T00:29:19.115Z,58.88
2023-04-15T00:29:52.655Z,58.38
2023-04-15T00:30:25.716Z,58.47
2023-04-15T00:30:58.085Z,59.22
2023-04-15T00:31:31.376Z,58.85
2023-04-15T00:32:03.327Z,59.40
2023-04-15T00:32:35.561Z,59.28
2023-04-15T00:33:08.619Z,59.05
2023-04-15T00:33:40.617Z,59.00
2023-04-15T00:34:12.869Z,58.20
2023-04-15T00:34:46.301Z,59.00
2023-04-15T00:35:18.885Z,58.63
2023-04-15T00:35:51.012Z,59.10
2023-04-15T00:36:24.457Z,58.15
2023-04-15T00:36:56.339Z,59.15
2023-04-15T00:37:28.245Z,58.47
2023-04-15T00:38:01.547Z,58.90
2023-04-15T00:38:33.519Z,59.42
2023-04-15T00:39:05.472Z,58.72
2023-04-15T00:39:38.317Z,57.63
2023-04-15T00:40:12.891Z,59.03
2023-04-15T00:40:44.956Z,60.05
2023-04-15T00:41:17.905Z,59.33
2023-04-15T00:41:49.969Z,58.95
2023-04-15T00:42:24.879Z,58.88
2023-04-15T00:42:57.799Z,58.45
2023-04-15T00:43:29.730Z,59.35
2023-04-15T00:44:02.487Z,58.33
2023-04-15T00:44:35.333Z,58.20
2023-04-15T00:45:09.050Z,58.72
2023-04-15T00:45:41.459Z,59.05
2023-04-15T00:46:17.652Z,58.75
2023-04-15T00:46:51.304Z,58.78
2023-04-15T00:47:23.305Z,59.10
2023-04-15T00:47:56.752Z,59.78
2023-04-15T00:48:28.808Z,59.03
2023-04-15T00:49:01.169Z,59.03
2023-04-15T00:49:34.214Z,58.67
2023-04-15T00:50:08.673Z,58.92
2023-04-15T00:50:40.596Z,59.35
2023-04-15T00:51:13.828Z,59.10
2023-04-15T00:51:45.766Z,58.80
2023-04-15T00:52:18.084Z,59.05
2023-04-15T00:52:50.974Z,59.17
2023-04-15T00:53:23.000Z,59.20
2023-04-15T00:53:54.915Z,58.40
2023-04-15T00:54:28.165Z,58.78
2023-04-15T00:55:00.560Z,58.70
2023-04-15T00:55:32.613Z,58.92
2023-04-15T00:56:06.213Z,58.47
2023-04-15T00:56:38.822Z,58.97
2023-04-15T00:57:10.778Z,59.05
2023-04-15T00:57:46.047Z,58.88
2023-04-15T00:58:18.657Z,58.85
2023-04-15T00:58:51.584Z,59.00
2023-04-15T00:59:24.925Z,59.72
2023-04-15T00:59:57.204Z,59.58
2023-04-15T01:00:30.477Z,58.95
2023-04-15T01:01:05.459Z,58.30
2023-04-15T01:01:38.543Z,59.13
2023-04-15T01:02:10.741Z,59.17
2023-04-15T01:02:43.846Z,58.78
2023-04-15T01:03:16.258Z,59.55
2023-04-15T01:03:49.676Z,59.58
2023-04-15T01:04:23.078Z,59.22
2023-04-15T01:04:56.400Z,58.58
2023-04-15T01:05:28.747Z,60.08
2023-04-15T01:06:03.900Z,59.45
2023-04-15T01:06:36.312Z,59.28
2023-04-15T01:07:08.292Z,58.67
2023-04-15T01:07:41.243Z,59.05
2023-04-15T01:08:13.212Z,59.17
2023-04-15T01:08:45.523Z,58.60
2023-04-15T01:09:17.713Z,58.97
2023-04-15T01:09:50.677Z,58.92
2023-04-15T01:10:23.004Z,58.80
2023-04-15T01:10:56.596Z,59.25
2023-04-15T01:11:30.628Z,59.05
2023-04-15T01:12:04.147Z,58.75
2023-04-15T01:12:37.762Z,58.80
2023-04-15T01:13:12.236Z,58.78
2023-04-15T01:13:44.969Z,59.05
2023-04-15T01:14:17.424Z,58.75
2023-04-15T01:14:50.323Z,59.55
2023-04-15T01:15:22.465Z,58.63
2023-04-15T01:15:56.097Z,59.05
2023-04-15T01:16:28.783Z,58.72
2023-04-15T01:17:02.170Z,58.92
2023-04-15T01:17:34.336Z,58.45
2023-04-15T01:18:07.506Z,59.42
2023-04-15T01:18:41.104Z,58.40
2023-04-15T01:19:16.656Z,58.70
2023-04-15T01:19:49.790Z,59.30
2023-04-15T01:20:22.246Z,58.92
2023-04-15T01:20:54.536Z,58.78
2023-04-15T01:21:30.324Z,59.70
2023-04-15T01:22:03.064Z,59.15
2023-04-15T01:22:35.898Z,59.67
2023-04-15T01:23:08.909Z,58.97
2023-04-15T01:23:40.927Z,59.60
2023-04-15T01:24:16.431Z,58.80
2023-04-15T01:24:55.882Z,59.08
2023-04-15T01:25:33.053Z,59.45
2023-04-15T01:26:05.497Z,58.47
2023-04-15T01:26:39.178Z,59.70
2023-04-15T01:27:13.163Z,59.28
2023-04-15T01:27:45.393Z,59.20
2023-04-15T01:28:18.356Z,58.50
2023-04-15T01:28:50.664Z,58.72
2023-04-15T01:29:23.237Z,58.33
2023-04-15T01:29:57.553Z,59.17
2023-04-15T01:30:29.909Z,58.63
2023-04-15T01:31:13.580Z,59.55
2023-04-15T01:31:52.023Z,58.67
2023-04-15T01:32:24.471Z,59.25
2023-04-15T01:32:58.172Z,60.05
2023-04-15T01:33:30.099Z,57.72
2023-04-15T01:34:02.154Z,59.25
2023-04-15T01:34:35.960Z,58.50
2023-04-15T01:35:08.813Z,58.90
2023-04-15T01:35:40.987Z,58.88
2023-04-15T01:36:14.341Z,58.40
2023-04-15T01:36:46.446Z,59.20
2023-04-15T01:37:19.266Z,58.75
2023-04-15T01:37:52.559Z,58.55
2023-04-15T01:38:24.638Z,58.42
2023-04-15T01:39:00.145Z,58.88
2023-04-15T01:39:33.670Z,58.85
2023-04-15T01:40:07.340Z,58.85
2023-04-15T01:40:43.777Z,58.70
2023-04-15T01:41:15.718Z,58.75
2023-04-15T01:41:47.902Z,57.80
2023-04-15T01:42:22.846Z,59.15
2023-04-15T01:42:54.816Z,58.08
2023-04-15T01:43:26.904Z,59.42
2023-04-15T01:43:59.860Z,58.30
2023-04-15T01:44:31.764Z,59.17
2023-04-15T01:45:04.061Z,58.90
2023-04-15T01:45:36.283Z,58.50
2023-04-15T01:46:10.567Z,58.92
2023-04-15T01:46:42.540Z,59.13
2023-04-15T01:47:14.793Z,58.70
2023-04-15T01:47:48.028Z,58.70
2023-04-15T01:48:20.092Z,59.95
2023-04-15T01:48:52.050Z,58.50
2023-04-15T01:49:25.027Z,58.92
2023-04-15T01:49:59.236Z,58.88
2023-04-15T01:50:31.488Z,58.45
2023-04-15T01:51:04.560Z,58.65
2023-04-15T01:51:36.465Z,58.85
2023-04-15T01:52:09.103Z,58.92
2023-04-15T01:52:42.375Z,59.22
2023-04-15T01:53:14.416Z,59.13
2023-04-15T01:53:46.579Z,58.78
2023-04-15T01:54:19.487Z,59.47
2023-04-15T01:54:51.453Z,59.13
2023-04-15T01:55:24.348Z,58.53
2023-04-15T01:55:58.792Z,59.15
2023-04-15T01:56:30.766Z,58.90
2023-04-15T01:57:03.617Z,58.55
2023-04-15T01:57:36.987Z,59.47
2023-04-15T01:58:09.050Z,58.80
2023-04-15T01:58:41.320Z,58.70
2023-04-15T01:59:14.203Z,59.80
2023-04-15T01:59:46.122Z,59.47
2023-04-15T02:00:18.039Z,59.25
2023-04-15T02:00:51.023Z,59.10
2023-04-15T02:01:23.109Z,59.55
2023-04-15T02:01:55.276Z,59.78
2023-04-15T02:02:28.295Z,59.05
2023-04-15T02:03:01.757Z,58.45
2023-04-15T02:03:33.962Z,58.78
2023-04-15T02:04:08.134Z,59.65
2023-04-15T02:04:40.343Z,58.78
2023-04-15T02:05:12.226Z,58.47
2023-04-15T02:05:45.333Z,59.40
2023-04-15T02:06:18.369Z,59.65
2023-04-15T02:06:50.310Z,59.28
2023-04-15T02:07:24.226Z,58.78
2023-04-15T02:07:56.183Z,59.35
2023-04-15T02:08:28.656Z,59.13
2023-04-15T02:09:01.758Z,59.35
2023-04-15T02:09:34.082Z,59.88
2023-04-15T02:10:06.545Z,59.83
2023-04-15T02:10:41.689Z,59.83
2023-04-15T02:11:15.485Z,59.58
2023-04-15T02:11:47.455Z,58.97
2023-04-15T02:12:20.359Z,60.35
2023-04-15T02:12:52.223Z,58.70
2023-04-15T02:13:24.266Z,59.47
2023-04-15T02:13:57.301Z,59.37
2023-04-15T02:14:31.515Z,59.83
2023-04-15T02:15:03.958Z,60.35
2023-04-15T02:15:37.136Z,59.25
2023-04-15T02:16:16.718Z,59.38
2023-04-15T02:16:49.497Z,59.80
2023-04-15T02:17:22.655Z,58.90
2023-04-15T02:17:55.473Z,59.00
2023-04-15T02:18:27.485Z,59.15
2023-04-15T02:19:01.777Z,60.05
2023-04-15T02:19:33.970Z,59.10
2023-04-15T02:20:10.717Z,58.55
2023-04-15T02:20:44.556Z,59.38
2023-04-15T02:21:16.487Z,59.03
2023-04-15T02:21:48.400Z,59.40
2023-04-15T02:22:24.095Z,59.45
2023-04-15T02:22:56.761Z,59.08
2023-04-15T02:23:28.680Z,59.33
2023-04-15T02:24:02.288Z,59.22
2023-04-15T02:24:34.435Z,59.35
2023-04-15T02:25:09.445Z,59.38
2023-04-15T02:25:42.952Z,60.85
2023-04-15T02:26:26.987Z,58.90
2023-04-15T02:26:59.708Z,60.33
2023-04-15T02:27:32.984Z,59.83
2023-04-15T02:28:05.431Z,59.33
2023-04-15T02:28:37.423Z,59.63
2023-04-15T02:29:10.375Z,60.47
2023-04-15T02:29:43.120Z,59.67
2023-04-15T02:30:15.235Z,59.22
2023-04-15T02:30:50.826Z,59.47
2023-04-15T02:31:22.920Z,60.08
2023-04-15T02:31:54.910Z,60.40
2023-04-15T02:32:26.856Z,59.15
2023-04-15T02:33:01.814Z,60.17
2023-04-15T02:33:33.947Z,60.15
2023-04-15T02:34:06.297Z,59.05
2023-04-15T02:34:41.226Z,59.70
2023-04-15T02:35:14.227Z,59.65
2023-04-15T02:35:46.546Z,59.20
2023-04-15T02:36:21.042Z,59.13
2023-04-15T02:36:57.185Z,59.20
2023-04-15T02:37:31.115Z,59.95
2023-04-15T02:38:04.358Z,61.13
2023-04-15T02:38:38.179Z,59.08
2023-04-15T02:39:10.167Z,59.88
2023-04-15T02:39:43.069Z,59.08
2023-04-15T02:40:15.077Z,59.58
2023-04-15T02:40:49.595Z,59.10
2023-04-15T02:41:27.161Z,59.63
2023-04-15T02:42:01.070Z,59.60
2023-04-15T02:42:33.122Z,59.67
2023-04-15T02:43:07.395Z,58.50
2023-04-15T02:43:40.087Z,60.05
2023-04-15T02:44:13.011Z,59.88
2023-04-15T02:44:45.988Z,61.17
2023-04-15T02:45:20.330Z,60.28
2023-04-15T02:45:52.355Z,59.75
2023-04-15T02:46:27.439Z,60.08
2023-04-15T02:46:59.704Z,60.75
2023-04-15T02:47:31.684Z,59.90
2023-04-15T02:48:06.642Z,60.25
2023-04-15T02:48:38.685Z,59.88
2023-04-15T02:49:11.276Z,59.78
2023-04-15T02:49:44.156Z,59.53
2023-04-15T02:50:16.566Z,59.55
2023-04-15T02:50:48.831Z,60.15
2023-04-15T02:51:23.522Z,59.03
2023-04-15T02:51:55.453Z,59.22
2023-04-15T02:52:27.567Z,59.35
2023-04-15T02:53:01.596Z,59.60
2023-04-15T02:53:34.215Z,59.10
2023-04-15T02:54:06.195Z,59.25
2023-04-15T02:54:39.078Z,59.20
2023-04-15T02:55:11.071Z,59.00
2023-04-15T02:55:43.172Z,59.05
2023-04-15T02:56:17.325Z,59.42
2023-04-15T02:56:49.986Z,59.58
2023-04-15T02:57:23.312Z,59.00
2023-04-15T02:57:57.238Z,59.13
2023-04-15T02:58:29.295Z,59.60
2023-04-15T02:59:01.592Z,59.88
2023-04-15T02:59:33.924Z,59.38
2023-04-15T03:00:09.711Z,58.63
2023-04-15T03:00:43.670Z,59.78
2023-04-15T03:01:15.714Z,59.70
2023-04-15T03:01:48.864Z,60.95
2023-04-15T03:02:21.161Z,59.30
2023-04-15T03:02:58.951Z,58.85
2023-04-15T03:03:32.088Z,60.00
2023-04-15T03:04:04.487Z,59.55
2023-04-15T03:04:36.521Z,59.03
2023-04-15T03:05:13.792Z,60.05
2023-04-15T03:05:51.625Z,58.47
2023-04-15T03:06:24.798Z,59.33
2023-04-15T03:06:57.389Z,59.70
2023-04-15T03:07:31.118Z,58.30
2023-04-15T03:08:04.169Z,60.90
2023-04-15T03:08:36.457Z,60.22
2023-04-15T03:09:08.697Z,59.47
2023-04-15T03:09:42.700Z,59.00
2023-04-15T03:10:15.503Z,60.80
2023-04-15T03:10:48.589Z,60.88
2023-04-15T03:11:21.447Z,59.83
2023-04-15T03:11:54.736Z,58.40
2023-04-15T03:12:30.354Z,59.85
2023-04-15T03:13:02.956Z,59.00
2023-04-15T03:13:35.110Z,59.25
2023-04-15T03:14:16.064Z,58.95
2023-04-15T03:14:51.259Z,59.75
2023-04-15T03:15:27.898Z,59.88
2023-04-15T03:16:01.284Z,58.83
2023-04-15T03:16:34.926Z,59.72
2023-04-15T03:17:06.863Z,59.58
2023-04-15T03:17:40.063Z,58.92
2023-04-15T03:18:12.924Z,58.97
2023-04-15T03:18:46.301Z,58.10
2023-04-15T03:19:18.806Z,60.53
2023-04-15T03:19:51.706Z,59.30
2023-04-15T03:20:24.218Z,58.83
2023-04-15T03:20:56.411Z,60.95
2023-04-15T03:21:29.965Z,59.25
2023-04-15T03:22:01.969Z,60.28
2023-04-15T03:22:34.137Z,58.22
2023-04-15T03:23:07.023Z,59.97
2023-04-15T03:23:39.351Z,59.95
2023-04-15T03:24:11.391Z,59.58
2023-04-15T03:24:44.369Z,59.13
2023-04-15T03:25:17.561Z,59.33
2023-04-15T03:25:50.595Z,59.15
2023-04-15T03:26:27.591Z,59.30
2023-04-15T03:27:01.967Z,59.60
2023-04-15T03:27:36.335Z,59.33
2023-04-15T03:28:09.070Z,59.63
2023-04-15T03:28:41.059Z,59.83
2023-04-15T03:29:13.990Z,59.38
2023-04-15T03:29:46.401Z,58.72
2023-04-15T03:30:20.131Z,59.53
2023-04-15T03:30:53.088Z,59.20
2023-04-15T03:31:25.158Z,60.17
2023-04-15T03:31:57.225Z,59.60
2023-04-15T03:32:30.219Z,59.65
2023-04-15T03:33:02.269Z,59.25
2023-04-15T03:33:34.366Z,59.20
2023-04-15T03:34:07.402Z,59.50
2023-04-15T03:34:39.317Z,59.55
2023-04-15T03:35:11.250Z,59.28
2023-04-15T03:35:44.126Z,59.93
2023-04-15T03:36:17.818Z,59.60
2023-04-15T03:36:49.801Z,58.88
2023-04-15T03:37:21.712Z,59.03
2023-04-15T03:37:54.581Z,59.33
2023-04-15T03:38:27.079Z,59.78
2023-04-15T03:38:59.255Z,59.55
2023-04-15T03:39:32.351Z,59.20
2023-04-15T03:40:04.757Z,59.67
2023-04-15T03:40:36.771Z,59.38
2023-04-15T03:41:09.829Z,59.35
2023-04-15T03:41:41.742Z,60.47
2023-04-15T03:42:13.651Z,58.70
2023-04-15T03:42:47.993Z,59.83
2023-04-15T03:43:19.923Z,60.13
2023-04-15T03:43:55.193Z,59.30
2023-04-15T03:44:28.282Z,58.47
2023-04-15T03:45:00.739Z,59.83
2023-04-15T03:45:32.879Z,59.63
2023-04-15T03:46:06.132Z,59.42
2023-04-15T03:46:38.229Z,60.55
2023-04-15T03:47:10.243Z,59.30
2023-04-15T03:47:43.380Z,59.30
2023-04-15T03:48:17.454Z,59.15
2023-04-15T03:48:50.165Z,59.00
2023-04-15T03:49:23.311Z,60.38
2023-04-15T03:49:55.226Z,56.45
2023-04-15T03:50:27.741Z,58.50
2023-04-15T03:51:00.746Z,60.13
2023-04-15T03:51:32.733Z,60.78
2023-04-15T03:52:04.776Z,59.00
2023-04-15T03:52:37.679Z,59.55
2023-04-15T03:53:10.324Z,59.63
2023-04-15T03:53:42.235Z,59.65
2023-04-15T03:54:15.310Z,59.72
2023-04-15T03:54:47.798Z,59.42
2023-04-15T03:55:20.177Z,58.60
2023-04-15T03:55:53.072Z,59.95
2023-04-15T03:56:25.116Z,59.20
2023-04-15T03:56:57.700Z,60.20
2023-04-15T03:57:29.696Z,59.67
2023-04-15T03:58:04.001Z,59.58
2023-04-15T03:58:35.900Z,60.30
2023-04-15T03:59:08.038Z,59.90
2023-04-15T03:59:41.103Z,60.08
2023-04-15T04:00:13.249Z,60.45
2023-04-15T04:00:45.318Z,59.72
2023-04-15T04:01:18.493Z,59.78
2023-04-15T04:01:50.935Z,59.70
2023-04-15T04:02:23.165Z,60.10
2023-04-15T04:02:56.496Z,60.28
2023-04-15T04:03:28.703Z,59.78
2023-04-15T04:04:01.049Z,60.40
2023-04-15T04:04:33.218Z,62.17
2023-04-15T04:05:06.554Z,60.15
2023-04-15T04:05:39.128Z,60.70
2023-04-15T04:06:12.499Z,60.08
2023-04-15T04:06:47.184Z,60.03
2023-04-15T04:07:19.140Z,60.40
2023-04-15T04:07:51.098Z,60.22
2023-04-15T04:08:23.957Z,59.88
2023-04-15T04:08:55.936Z,59.50
2023-04-15T04:09:27.926Z,59.70
2023-04-15T04:10:01.458Z,59.58
2023-04-15T04:10:33.438Z,59.70
2023-04-15T04:11:05.529Z,60.42
2023-04-15T04:11:38.619Z,60.25
2023-04-15T04:12:10.588Z,60.10
2023-04-15T04:12:42.528Z,60.15
2023-04-15T04:13:17.164Z,61.38
2023-04-15T04:13:49.069Z,60.08
2023-04-15T04:14:26.596Z,59.90
2023-04-15T04:14:58.514Z,60.22
2023-04-15T04:15:30.421Z,61.17
2023-04-15T04:16:04.755Z,60.72
2023-04-15T04:16:36.889Z,60.53
2023-04-15T04:17:09.236Z,60.20
2023-04-15T04:17:42.313Z,60.75
2023-04-15T04:18:14.277Z,60.28
2023-04-15T04:18:46.525Z,60.83
2023-04-15T04:19:20.344Z,59.80
2023-04-15T04:19:52.349Z,60.15
2023-04-15T04:20:24.288Z,60.47
2023-04-15T04:20:57.178Z,60.70
2023-04-15T04:21:29.166Z,60.58
2023-04-15T04:22:01.572Z,61.47
2023-04-15T04:22:39.087Z,60.67
2023-04-15T04:23:11.516Z,60.83
2023-04-15T04:23:43.515Z,59.55
2023-04-15T04:24:16.572Z,60.78
2023-04-15T04:24:48.538Z,60.40
2023-04-15T04:25:20.525Z,61.28
2023-04-15T04:25:53.682Z,60.20
2023-04-15T04:26:26.006Z,59.22
2023-04-15T04:26:58.131Z,60.58
2023-04-15T04:27:31.000Z,60.75
2023-04-15T04:28:02.982Z,60.08
2023-04-15T04:28:36.576Z,60.20
2023-04-15T04:29:09.507Z,59.75
2023-04-15T04:29:41.471Z,60.90
2023-04-15T04:30:13.402Z,60.08
2023-04-15T04:30:46.458Z,60.35
2023-04-15T04:31:18.679Z,60.90
2023-04-15T04:31:51.093Z,61.38
2023-04-15T04:32:24.119Z,61.58
2023-04-15T04:32:56.087Z,60.45
2023-04-15T04:33:27.992Z,60.17
2023-04-15T04:34:01.019Z,60.20
2023-04-15T04:34:32.962Z,60.55
2023-04-15T04:35:05.237Z,61.58
2023-04-15T04:35:38.272Z,61.00
2023-04-15T04:36:10.192Z,59.13
2023-04-15T04:36:42.283Z,61.13
2023-04-15T04:37:15.558Z,60.58
2023-04-15T04:37:47.533Z,61.53
2023-04-15T04:38:20.592Z,59.92
2023-04-15T04:38:52.541Z,61.40
2023-04-15T04:39:24.520Z,61.05
2023-04-15T04:39:57.379Z,61.30
2023-04-15T04:40:29.418Z,61.25
2023-04-15T04:41:01.523Z,61.03
2023-04-15T04:41:34.470Z,62.00
2023-04-15T04:42:06.400Z,60.35
2023-04-15T04:42:39.836Z,60.70
2023-04-15T04:43:14.652Z,61.05
2023-04-15T04:43:47.921Z,60.40
2023-04-15T04:44:19.848Z,61.38
2023-04-15T04:44:52.767Z,62.05
2023-04-15T04:45:24.787Z,61.35
2023-04-15T04:45:57.045Z,60.15
2023-04-15T04:46:30.152Z,61.63
2023-04-15T04:47:02.203Z,61.95
2023-04-15T04:47:34.142Z,61.90
2023-04-15T04:48:08.751Z,61.70
2023-04-15T04:48:41.077Z,60.58
2023-04-15T04:49:12.988Z,61.13
2023-04-15T04:49:45.848Z,61.03
2023-04-15T04:50:17.837Z,61.58
2023-04-15T04:50:50.944Z,62.38
2023-04-15T04:51:22.940Z,62.42
2023-04-15T04:51:54.996Z,62.65
2023-04-15T04:52:27.907Z,61.63
2023-04-15T04:52:59.867Z,62.15
2023-04-15T04:53:32.814Z,61.78
2023-04-15T04:54:04.839Z,61.88
2023-04-15T04:54:37.196Z,61.47
2023-04-15T04:55:10.522Z,61.53
2023-04-15T04:55:42.503Z,60.45
2023-04-15T04:56:14.415Z,60.35
2023-04-15T04:56:47.265Z,61.60
2023-04-15T04:57:19.156Z,60.58
2023-04-15T04:57:51.446Z,61.05
2023-04-15T04:58:24.382Z,61.65
2023-04-15T04:58:57.591Z,61.13
2023-04-15T04:59:29.583Z,60.70
2023-04-15T05:00:03.374Z,61.58
2023-04-15T05:00:38.482Z,60.33
2023-04-15T05:01:10.639Z,61.97
2023-04-15T05:01:43.668Z,61.55
2023-04-15T05:02:16.093Z,61.92
2023-04-15T05:02:48.410Z,61.97
2023-04-15T05:03:22.003Z,62.05
2023-04-15T05:03:54.574Z,62.35
2023-04-15T05:04:27.506Z,61.30
2023-04-15T05:04:59.459Z,61.10
2023-04-15T05:05:31.433Z,62.75
2023-04-15T05:06:06.517Z,61.83
2023-04-15T05:06:38.480Z,62.13
2023-04-15T05:07:10.839Z,62.20
2023-04-15T05:07:43.724Z,61.05
2023-04-15T05:08:15.660Z,60.67
2023-04-15T05:08:47.806Z,60.67
2023-04-15T05:09:20.826Z,61.33
2023-04-15T05:09:52.857Z,61.45
2023-04-15T05:10:25.704Z,60.78
2023-04-15T05:10:57.609Z,59.63
2023-04-15T05:11:29.574Z,61.45
2023-04-15T05:12:02.769Z,61.50
2023-04-15T05:12:35.647Z,60.75
2023-04-15T05:13:08.572Z,60.83
2023-04-15T05:13:40.799Z,62.63
2023-04-15T05:14:14.136Z,61.40
2023-04-15T05:14:47.049Z,60.85
2023-04-15T05:15:19.278Z,62.47
2023-04-15T05:15:51.591Z,61.60
2023-04-15T05:16:25.871Z,62.88
2023-04-15T05:17:00.679Z,61.97
2023-04-15T05:17:33.364Z,62.33
2023-04-15T05:18:06.563Z,60.63
2023-04-15T05:18:38.528Z,61.22
2023-04-15T05:19:10.450Z,61.17
2023-04-15T05:19:43.392Z,62.13
2023-04-15T05:20:15.653Z,61.70
2023-04-15T05:20:47.804Z,61.38
2023-04-15T05:21:20.773Z,62.22
2023-04-15T05:21:52.782Z,61.33
2023-04-15T05:22:24.768Z,61.80
2023-04-15T05:22:57.663Z,61.33
2023-04-15T05:23:29.685Z,61.88
2023-04-15T05:24:01.649Z,61.40
2023-04-15T05:24:34.521Z,61.72
2023-04-15T05:25:07.051Z,63.00
2023-04-15T05:25:39.005Z,61.55
2023-04-15T05:26:11.994Z,61.88
2023-04-15T05:26:44.040Z,61.05
2023-04-15T05:27:16.114Z,62.60
2023-04-15T05:27:49.082Z,61.75
2023-04-15T05:28:21.183Z,62.10
2023-04-15T05:28:53.115Z,61.92
2023-04-15T05:29:27.311Z,60.63
2023-04-15T05:29:59.283Z,61.90
2023-04-15T05:30:31.276Z,62.83
2023-04-15T05:31:04.493Z,61.95
2023-04-15T05:31:37.017Z,63.25
2023-04-15T05:32:09.013Z,62.10
2023-04-15T05:32:41.994Z,62.35
2023-04-15T05:33:13.983Z,62.50
2023-04-15T05:33:45.911Z,62.27
2023-04-15T05:34:19.006Z,61.97
2023-04-15T05:34:51.353Z,63.83
2023-04-15T05:35:23.317Z,61.95
2023-04-15T05:35:56.313Z,61.75
2023-04-15T05:36:28.671Z,61.90
2023-04-15T05:37:00.770Z,61.55
2023-04-15T05:37:33.670Z,62.00
2023-04-15T05:38:05.601Z,61.28
2023-04-15T05:38:37.495Z,61.47
2023-04-15T05:39:10.411Z,63.30
2023-04-15T05:39:42.388Z,62.88
2023-04-15T05:40:15.592Z,63.17
2023-04-15T05:40:47.492Z,62.13
2023-04-15T05:41:19.950Z,62.93
2023-04-15T05:41:53.282Z,62.42
2023-04-15T05:42:25.214Z,62.78
2023-04-15T05:42:57.564Z,61.70
2023-04-15T05:43:30.740Z,62.28
2023-04-15T05:44:02.744Z,63.03
2023-04-15T05:44:36.151Z,62.58
2023-04-15T05:45:10.020Z,61.60
2023-04-15T05:45:41.989Z,61.63
2023-04-15T05:46:13.933Z,62.90
2023-04-15T05:46:47.168Z,62.75
2023-04-15T05:47:19.402Z,62.72
2023-04-15T05:47:54.233Z,61.90
2023-04-15T05:48:27.373Z,61.45
2023-04-15T05:48:59.523Z,61.97
2023-04-15T05:49:31.900Z,60.50
2023-04-15T05:50:05.415Z,62.75
2023-04-15T05:50:37.336Z,61.78
2023-04-15T05:51:09.773Z,60.40
2023-04-15T05:51:42.703Z,62.47
2023-04-15T05:52:14.616Z,61.92
2023-04-15T05:52:46.572Z,63.03
2023-04-15T05:53:19.482Z,61.58
2023-04-15T05:53:51.409Z,62.58
2023-04-15T05:54:23.570Z,62.13
2023-04-15T05:54:56.509Z,61.60
2023-04-15T05:55:28.401Z,62.33
2023-04-15T05:56:00.639Z,61.97
2023-04-15T05:56:33.721Z,63.42
2023-04-15T05:57:05.637Z,61.35
2023-04-15T05:57:37.765Z,61.78
2023-04-15T05:58:11.410Z,62.60
2023-04-15T05:58:43.301Z,62.22
2023-04-15T05:59:15.310Z,62.53
2023-04-15T05:59:51.557Z,62.72
2023-04-15T06:00:23.563Z,62.30
2023-04-15T06:00:55.629Z,62.58
2023-04-15T06:01:28.843Z,62.47
2023-04-15T06:02:00.918Z,62.00
2023-04-15T06:02:33.415Z,62.53
2023-04-15T06:03:06.554Z,61.80
2023-04-15T06:03:39.119Z,61.97
2023-04-15T06:04:11.693Z,63.47
2023-04-15T06:04:44.903Z,62.33
2023-04-15T06:05:16.967Z,61.40
2023-04-15T06:05:49.266Z,60.72
2023-04-15T06:06:22.249Z,61.47
2023-04-15T06:06:54.344Z,62.15
2023-04-15T06:07:26.465Z,62.90
2023-04-15T06:07:59.404Z,62.78
2023-04-15T06:08:31.396Z,62.42
2023-04-15T06:09:03.678Z,61.45
2023-04-15T06:09:36.910Z,62.75
2023-04-15T06:10:09.960Z,63.72
2023-04-15T06:10:41.937Z,62.67
2023-04-15T06:11:14.835Z,63.55
2023-04-15T06:11:46.804Z,62.78
2023-04-15T06:12:18.746Z,63.30
2023-04-15T06:12:53.685Z,64.35
2023-04-15T06:13:25.740Z,62.75
2023-04-15T06:13:57.695Z,62.55
2023-04-15T06:14:30.647Z,63.10
2023-04-15T06:15:04.481Z,62.25
2023-04-15T06:15:37.697Z,62.47
2023-04-15T06:16:09.816Z,62.92
2023-04-15T06:16:42.486Z,62.42
2023-04-15T06:17:18.392Z,62.28
2023-04-15T06:17:50.465Z,62.28
2023-04-15T06:18:23.448Z,62.35
2023-04-15T06:18:55.372Z,62.83
2023-04-15T06:19:27.323Z,62.53
2023-04-15T06:20:00.259Z,61.80
2023-04-15T06:20:32.683Z,62.88
2023-04-15T06:21:04.916Z,62.20
2023-04-15T06:21:37.907Z,62.92
2023-04-15T06:22:09.838Z,63.28
2023-04-15T06:22:41.788Z,62.42
2023-04-15T06:23:14.760Z,63.30
2023-04-15T06:23:46.773Z,63.25
2023-04-15T06:24:19.169Z,64.28
2023-04-15T06:24:53.404Z,63.25
2023-04-15T06:25:25.702Z,62.55
2023-04-15T06:25:58.232Z,62.95
2023-04-15T06:26:31.518Z,63.88
2023-04-15T06:27:07.351Z,62.15
2023-04-15T06:27:40.114Z,62.47
2023-04-15T06:28:13.748Z,62.35
2023-04-15T06:28:49.731Z,63.72
2023-04-15T06:29:27.857Z,63.75
2023-04-15T06:30:07.894Z,62.65
2023-04-15T06:30:42.748Z,63.03
2023-04-15T06:31:15.929Z,63.42
2023-04-15T06:31:52.882Z,63.13
2023-04-15T06:32:25.782Z,63.80
2023-04-15T06:32:59.694Z,62.08
2023-04-15T06:33:33.319Z,62.55
2023-04-15T06:34:05.487Z,61.38
2023-04-15T06:34:37.727Z,63.67
2023-04-15T06:35:12.578Z,62.60
2023-04-15T06:35:46.297Z,63.22
2023-04-15T06:36:28.757Z,64.00
2023-04-15T06:37:30.900Z,62.83
2023-04-15T06:38:02.847Z,63.25
2023-04-15T06:38:36.068Z,62.20
2023-04-15T06:39:08.078Z,64.00
2023-04-15T06:39:40.330Z,63.97
2023-04-15T06:40:14.239Z,64.15
2023-04-15T06:40:46.426Z,63.78
2023-04-15T06:41:19.576Z,62.13
2023-04-15T06:41:51.602Z,63.55
2023-04-15T06:42:26.575Z,64.53
2023-04-15T06:43:00.198Z,63.90
2023-04-15T06:43:32.380Z,63.45
2023-04-15T06:44:04.574Z,63.47
2023-04-15T06:44:37.669Z,62.90
2023-04-15T06:45:12.004Z,63.53
2023-04-15T06:45:44.950Z,63.97
2023-04-15T06:46:17.180Z,64.30
2023-04-15T06:46:49.237Z,64.45
2023-04-15T06:47:22.499Z,63.95
2023-04-15T06:47:54.564Z,63.83
2023-04-15T06:48:26.572Z,64.57
2023-04-15T06:48:59.595Z,63.65
2023-04-15T06:49:31.836Z,64.25
2023-04-15T06:50:04.160Z,63.58
2023-04-15T06:50:37.725Z,65.18
2023-04-15T06:51:09.722Z,63.97
2023-04-15T06:51:43.925Z,63.63
2023-04-15T06:52:16.699Z,63.63
2023-04-15T06:52:48.699Z,63.50
2023-04-15T06:53:22.106Z,64.13
2023-04-15T06:53:54.133Z,63.45
2023-04-15T06:54:26.041Z,64.60
2023-04-15T06:54:59.538Z,65.32
2023-04-15T06:55:32.318Z,63.72
2023-04-15T06:56:04.570Z,63.75
2023-04-15T06:56:37.558Z,63.90
2023-04-15T06:57:09.854Z,64.20
2023-04-15T06:57:41.914Z,63.30
2023-04-15T06:58:17.285Z,64.15
2023-04-15T06:58:49.578Z,63.73
2023-04-15T06:59:22.510Z,63.97
2023-04-15T06:59:55.114Z,63.30
2023-04-15T07:00:28.907Z,63.92
2023-04-15T07:01:02.272Z,64.57
2023-04-15T07:01:34.367Z,64.00
2023-04-15T07:02:12.545Z,63.38
2023-04-15T07:02:46.721Z,63.05
2023-04-15T07:03:19.013Z,63.10
2023-04-15T07:03:51.671Z,62.33
2023-04-15T07:04:24.731Z,62.10
2023-04-15T07:04:57.009Z,63.00